| time (UTC) | temp F | wind direction | speed MPH | gust MPH | rain 1hr in | rain 24hr in | rain mn in | humidity % | barometer mb |
| 20260508080016 | 41 | 246 | 0.0 | 3.0 | 0.00 | 0.08 | 0.00 | 75 | 1013.4 |
| 20260508074516 | 40 | 244 | 0.0 | 2.0 | 0.00 | 0.08 | 0.00 | 74 | 1013.2 |
| 20260508073018 | 41 | 244 | 2.0 | 4.0 | 0.00 | 0.09 | 0.00 | 74 | 1013.2 |
| 20260508071534 | 41 | 272 | 1.0 | 3.0 | 0.00 | 0.09 | 0.00 | 74 | 1013.2 |
| 20260508070016 | 41 | 272 | 0.0 | 6.0 | 0.00 | 0.09 | 0.00 | 74 | 1013.2 |
| 20260508064516 | 41 | 310 | 0.0 | 5.0 | 0.00 | 0.09 | 0.00 | 73 | 1013.1 |
| 20260508063029 | 42 | 360 | 1.0 | 4.0 | 0.00 | 0.09 | 0.00 | 73 | 1013.0 |
| 20260508061520 | 41 | 53 | 1.0 | 3.0 | 0.00 | 0.09 | 0.00 | 72 | 1013.1 |
| 20260508060021 | 43 | 5 | 0.0 | 3.0 | 0.00 | 0.09 | 0.00 | 72 | 1013.2 |
| 20260508054516 | 43 | 33 | 0.0 | 3.0 | 0.00 | 0.09 | 0.00 | 71 | 1013.2 |
| 20260508053014 | 43 | 49 | 0.0 | 3.0 | 0.00 | 0.09 | 0.00 | 71 | 1013.1 |
| 20260508051512 | 44 | 317 | 1.0 | 2.0 | 0.00 | 0.09 | 0.00 | 71 | 1013.0 |
| 20260508050009 | 44 | 317 | 0.0 | 3.0 | 0.00 | 0.09 | 0.00 | 71 | 1012.8 |
| 20260508044527 | 45 | 316 | 1.0 | 4.0 | 0.00 | 0.09 | 0.00 | 71 | 1012.6 |
| 20260508043020 | 44 | 315 | 1.0 | 6.0 | 0.00 | 0.09 | 0.00 | 71 | 1012.4 |
| 20260508041515 | 45 | 323 | 1.0 | 4.0 | 0.00 | 0.09 | 0.00 | 70 | 1012.2 |
| 20260508040021 | 45 | 325 | 2.0 | 4.0 | 0.00 | 0.09 | 0.00 | 71 | 1012.3 |
| 20260508034516 | 45 | 325 | 0.0 | 2.0 | 0.00 | 0.09 | 0.09 | 71 | 1012.0 |
| 20260508033024 | 46 | 325 | 1.0 | 3.0 | 0.00 | 0.09 | 0.09 | 71 | 1011.8 |
| 20260508031516 | 47 | 325 | 2.0 | 4.0 | 0.00 | 0.11 | 0.09 | 71 | 1011.7 |
| 20260508030020 | 47 | 325 | 0.0 | 3.0 | 0.00 | 0.13 | 0.09 | 71 | 1011.8 |
| 20260508024532 | 48 | 325 | 1.0 | 3.0 | 0.00 | 0.13 | 0.09 | 71 | 1011.4 |
| 20260508023004 | 48 | 325 | 0.0 | 4.0 | 0.00 | 0.14 | 0.09 | 70 | 1011.3 |
| 20260508021505 | 50 | 325 | 2.0 | 3.0 | 0.00 | 0.14 | 0.09 | 69 | 1011.2 |
| 20260508020014 | 49 | 327 | 4.0 | 8.0 | 0.00 | 0.14 | 0.09 | 69 | 1011.1 |
| 20260508014514 | 50 | 324 | 1.0 | 4.0 | 0.00 | 0.14 | 0.09 | 69 | 1010.9 |
| 20260508013003 | 51 | 325 | 0.0 | 2.0 | 0.00 | 0.14 | 0.09 | 67 | 1010.6 |
| 20260508011505 | 53 | 325 | 0.0 | 2.0 | 0.00 | 0.14 | 0.09 | 64 | 1010.3 |
| 20260508010004 | 54 | 325 | 1.0 | 7.0 | 0.00 | 0.14 | 0.09 | 61 | 1010.1 |
| 20260508004513 | 55 | 333 | 2.0 | 4.0 | 0.00 | 0.14 | 0.09 | 56 | 1010.0 |
| 20260508003015 | 56 | 306 | 2.0 | 7.0 | 0.00 | 0.14 | 0.09 | 56 | 1010.2 |
| 20260508001504 | 56 | 350 | 3.0 | 9.0 | 0.00 | 0.14 | 0.09 | 57 | 1010.2 |
| 20260508000008 | 56 | 333 | 3.0 | 10.0 | 0.00 | 0.14 | 0.09 | 65 | 1010.1 |
| 20260507234510 | 57 | 316 | 2.0 | 6.0 | 0.00 | 0.14 | 0.09 | 70 | 1009.8 |
| 20260507233025 | 58 | 321 | 2.0 | 4.0 | 0.00 | 0.14 | 0.09 | 71 | 1009.7 |
| 20260507231532 | 58 | 276 | 0.0 | 2.0 | 0.00 | 0.14 | 0.09 | 71 | 1009.4 |
| 20260507230005 | 58 | 338 | 0.0 | 1.0 | 0.00 | 0.14 | 0.09 | 71 | 1009.4 |
| 20260507224510 | 58 | 28 | 0.0 | 2.0 | 0.00 | 0.14 | 0.09 | 70 | 1009.2 |
| 20260507223013 | 58 | 25 | 0.0 | 3.0 | 0.00 | 0.14 | 0.09 | 69 | 1008.9 |
| 20260507221513 | 59 | 34 | 3.0 | 9.0 | 0.00 | 0.14 | 0.09 | 68 | 1008.7 |
| 20260507220021 | 59 | 36 | 1.0 | 4.0 | 0.00 | 0.14 | 0.09 | 68 | 1008.9 |
| 20260507214510 | 59 | 49 | 1.0 | 6.0 | 0.00 | 0.14 | 0.09 | 68 | 1008.8 |
| 20260507213014 | 58 | 78 | 3.0 | 7.0 | 0.00 | 0.14 | 0.09 | 67 | 1008.7 |
| 20260507211521 | 58 | 92 | 3.0 | 8.0 | 0.00 | 0.14 | 0.09 | 70 | 1008.5 |
| 20260507210011 | 57 | 43 | 4.0 | 8.0 | 0.00 | 0.14 | 0.09 | 70 | 1008.5 |
| 20260507204512 | 57 | 103 | 4.0 | 9.0 | 0.00 | 0.14 | 0.09 | 70 | 1008.5 |
| 20260507203035 | 56 | 101 | 3.0 | 7.0 | 0.00 | 0.14 | 0.09 | 72 | 1008.6 |
| 20260507201511 | 56 | 92 | 1.0 | 4.0 | 0.01 | 0.14 | 0.09 | 72 | 1008.6 |
| 20260507200019 | 55 | 111 | 1.0 | 5.0 | 0.01 | 0.14 | 0.09 | 72 | 1008.8 |
| 20260507194520 | 55 | 54 | 0.0 | 5.0 | 0.01 | 0.14 | 0.09 | 72 | 1009.2 |
| 20260507193018 | 55 | 41 | 3.0 | 6.0 | 0.01 | 0.14 | 0.09 | 71 | 1009.1 |
| 20260507191512 | 55 | 320 | 4.0 | 9.0 | 0.00 | 0.13 | 0.08 | 71 | 1009.2 |
| 20260507190014 | 56 | 54 | 3.0 | 8.0 | 0.00 | 0.13 | 0.08 | 72 | 1009.4 |
| 20260507184520 | 56 | 78 | 1.0 | 8.0 | 0.00 | 0.13 | 0.08 | 72 | 1009.4 |
| 20260507183024 | 56 | 47 | 5.0 | 11.0 | 0.00 | 0.13 | 0.08 | 72 | 1009.3 |
| 20260507181524 | 56 | 49 | 5.0 | 10.0 | 0.00 | 0.13 | 0.08 | 72 | 1009.4 |
| 20260507180023 | 56 | 40 | 8.0 | 13.0 | 0.00 | 0.13 | 0.08 | 72 | 1009.0 |
| 20260507174516 | 56 | 94 | 2.0 | 10.0 | 0.00 | 0.13 | 0.08 | 72 | 1009.3 |
| 20260507173024 | 57 | 63 | 4.0 | 11.0 | 0.04 | 0.13 | 0.08 | 72 | 1009.1 |
| 20260507171510 | 57 | 42 | 7.0 | 15.0 | 0.07 | 0.13 | 0.08 | 71 | 1009.2 |
| 20260507170008 | 58 | 350 | 5.0 | 10.0 | 0.07 | 0.13 | 0.08 | 71 | 1008.9 |
| 20260507164514 | 59 | 75 | 2.0 | 8.0 | 0.07 | 0.13 | 0.08 | 72 | 1008.8 |
| 20260507163011 | 59 | 37 | 2.0 | 6.0 | 0.03 | 0.10 | 0.04 | 71 | 1009.2 |
| 20260507161514 | 59 | 42 | 4.0 | 12.0 | 0.00 | 0.07 | 0.01 | 70 | 1009.1 |
| 20260507160015 | 59 | 64 | 1.0 | 9.0 | 0.00 | 0.07 | 0.01 | 71 | 1009.1 |
| 20260507154509 | 60 | 80 | 4.0 | 8.0 | 0.00 | 0.07 | 0.01 | 71 | 1008.9 |
| 20260507153018 | 59 | 56 | 4.0 | 9.0 | 0.00 | 0.07 | 0.01 | 70 | 1009.1 |
| 20260507151522 | 59 | 83 | 4.0 | 11.0 | 0.00 | 0.07 | 0.01 | 70 | 1009.0 |
| 20260507150024 | 59 | 63 | 3.0 | 7.0 | 0.00 | 0.07 | 0.01 | 71 | 1009.2 |
| 20260507144525 | 59 | 62 | 3.0 | 8.0 | 0.00 | 0.07 | 0.01 | 71 | 1009.1 |
| 20260507143013 | 59 | 46 | 2.0 | 9.0 | 0.00 | 0.07 | 0.01 | 72 | 1008.8 |
| 20260507141519 | 59 | 33 | 3.0 | 8.0 | 0.00 | 0.08 | 0.01 | 73 | 1008.7 |
| 20260507140027 | 59 | 49 | 3.0 | 5.0 | 0.00 | 0.08 | 0.01 | 74 | 1008.7 |
| 20260507134524 | 59 | 28 | 3.0 | 9.0 | 0.00 | 0.08 | 0.01 | 74 | 1008.6 |
| 20260507133024 | 59 | 15 | 4.0 | 9.0 | 0.00 | 0.08 | 0.01 | 74 | 1008.9 |
| 20260507131517 | 59 | 108 | 3.0 | 8.0 | 0.00 | 0.08 | 0.01 | 74 | 1009.0 |
| 20260507130019 | 60 | 67 | 1.0 | 6.0 | 0.00 | 0.08 | 0.01 | 75 | 1009.6 |
| 20260507124530 | 60 | 63 | 2.0 | 5.0 | 0.00 | 0.08 | 0.01 | 76 | 1009.4 |
| 20260507123017 | 60 | 102 | 2.0 | 7.0 | 0.00 | 0.08 | 0.01 | 76 | 1009.6 |
| 20260507121526 | 60 | 91 | 2.0 | 6.0 | 0.00 | 0.08 | 0.01 | 76 | 1009.7 |
| 20260507120018 | 61 | 86 | 3.0 | 7.0 | 0.00 | 0.08 | 0.01 | 76 | 1009.2 |
| 20260507114521 | 61 | 81 | 2.0 | 7.0 | 0.00 | 0.08 | 0.01 | 76 | 1008.9 |
| 20260507113013 | 61 | 87 | 2.0 | 6.0 | 0.00 | 0.08 | 0.01 | 76 | 1009.0 |
| 20260507111509 | 61 | 69 | 2.0 | 7.0 | 0.00 | 0.08 | 0.01 | 76 | 1008.8 |
| 20260507110012 | 61 | 100 | 2.0 | 5.0 | 0.00 | 0.08 | 0.01 | 76 | 1008.8 |
| 20260507104510 | 62 | 80 | 4.0 | 8.0 | 0.00 | 0.08 | 0.01 | 76 | 1008.5 |
| 20260507103006 | 63 | 121 | 1.0 | 2.0 | 0.00 | 0.08 | 0.01 | 76 | 1008.9 |
| 20260507101513 | 63 | 121 | 0.0 | 1.0 | 0.00 | 0.08 | 0.01 | 76 | 1008.6 |
| 20260507100012 | 63 | 121 | 0.0 | 2.0 | 0.00 | 0.08 | 0.01 | 76 | 1008.5 |
| 20260507094517 | 63 | 121 | 0.0 | 1.0 | 0.00 | 0.08 | 0.01 | 76 | 1008.1 |
| 20260507093007 | 63 | 121 | 0.0 | 2.0 | 0.00 | 0.08 | 0.01 | 76 | 1008.1 |
| 20260507091509 | 63 | 121 | 2.0 | 4.0 | 0.00 | 0.08 | 0.01 | 76 | 1008.2 |
| 20260507090015 | 63 | 146 | 0.0 | 3.0 | 0.00 | 0.08 | 0.01 | 76 | 1008.5 |
| 20260507084509 | 63 | 222 | 1.0 | 2.0 | 0.00 | 0.08 | 0.01 | 76 | 1008.5 |
| 20260507083016 | 63 | 222 | 0.0 | 3.0 | 0.01 | 0.08 | 0.01 | 75 | 1008.4 |
| 20260507081508 | 63 | 227 | 0.0 | 2.0 | 0.01 | 0.08 | 0.01 | 75 | 1008.6 |